Time;durP1;ratioP1;P1;durP2;ratioP2;P2;SDS_P1;SDS_P2;PMS_P1;PMS_P2;Temp;Humidity;BMP_temperature;BMP_pressure;BME280_temperature;BME280_humidity;BME280_pressure;Samples;Min_cycle;Max_cycle;Signal;HPM_P1;HPM_P2
2021/04/13 00:00:34;;;;;;;0.40;0.40;;;18.70;49.40;;;;;;10325603;28;20219;-59
2021/04/13 00:05:57;;;;;;;1.13;0.33;;;18.70;49.40;;;;;;10326624;28;20211;-59
2021/04/13 00:11:19;;;;;;;0.67;0.40;;;18.70;49.40;;;;;;10326151;28;20636;-59
2021/04/13 00:16:41;;;;;;;1.03;0.60;;;18.70;49.30;;;;;;10326433;28;20195;-59
2021/04/13 00:22:03;;;;;;;0.60;0.33;;;18.70;49.30;;;;;;10346938;28;20284;-60
2021/04/13 00:27:27;;;;;;;0.73;0.57;;;18.60;49.30;;;;;;10327528;28;20195;-59
2021/04/13 00:32:55;;;;;;;1.10;0.57;;;18.60;49.30;;;;;;10332777;28;20699;-59
2021/04/13 00:38:29;;;;;;;0.33;0.30;;;18.70;49.30;;;;;;10335375;28;20202;-59
2021/04/13 00:43:53;;;;;;;0.97;0.60;;;18.60;49.30;;;;;;10334843;28;20246;-59
2021/04/13 00:49:19;;;;;;;0.80;0.57;;;18.60;49.40;;;;;;10335095;28;20230;-59
2021/04/13 00:54:47;;;;;;;0.83;0.50;;;18.60;49.30;;;;;;10334402;28;20287;-60
2021/04/13 01:00:13;;;;;;;1.10;0.40;;;18.60;49.30;;;;;;10334346;28;20261;-60
2021/04/13 01:05:38;;;;;;;0.60;0.40;;;18.60;49.30;;;;;;10390715;23;20234;-70
2021/04/13 01:11:08;;;;;;;0.57;0.30;;;18.60;49.30;;;;;;10376432;28;20201;-69
2021/04/13 01:16:32;;;;;;;1.07;0.47;;;18.60;49.40;;;;;;10335653;28;20238;-69
2021/04/13 01:22:04;;;;;;;0.70;0.50;;;18.60;49.40;;;;;;10298268;28;21061;-69
2021/04/13 01:27:27;;;;;;;1.70;0.40;;;18.60;49.30;;;;;;10295060;28;20196;-69
2021/04/13 01:32:49;;;;;;;0.60;0.40;;;18.60;49.30;;;;;;10294271;28;20223;-69
2021/04/13 01:38:18;;;;;;;0.30;0.30;;;18.60;49.30;;;;;;10294731;28;20223;-69
2021/04/13 01:43:42;;;;;;;0.50;0.40;;;18.60;49.30;;;;;;10294393;28;20630;-69
2021/04/13 01:49:04;;;;;;;0.53;0.53;;;18.60;49.30;;;;;;10310652;28;20195;-68
2021/04/13 01:54:26;;;;;;;0.50;0.50;;;18.60;49.30;;;;;;10333481;28;20216;-69
2021/04/13 01:59:54;;;;;;;0.70;0.50;;;18.60;49.30;;;;;;10332609;28;20215;-69
2021/04/13 02:05:18;;;;;;;0.70;0.40;;;18.60;49.40;;;;;;10327814;28;20234;-69
2021/04/13 02:10:44;;;;;;;0.60;0.50;;;18.60;49.30;;;;;;10330523;28;20277;-69
2021/04/13 02:16:12;;;;;;;0.53;0.37;;;18.50;49.20;;;;;;10294208;28;20714;-69
2021/04/13 02:21:39;;;;;;;0.77;0.40;;;18.60;49.30;;;;;;10316085;28;20219;-69
2021/04/13 02:27:03;;;;;;;0.77;0.30;;;18.60;49.30;;;;;;10332814;28;20567;-68
2021/04/13 02:32:29;;;;;;;0.73;0.40;;;18.60;49.30;;;;;;10311145;28;20212;-69
2021/04/13 02:37:53;;;;;;;0.40;0.40;;;18.60;49.30;;;;;;10318249;28;20206;-69
2021/04/13 02:43:23;;;;;;;0.60;0.40;;;18.60;49.30;;;;;;10292047;28;20282;-70
2021/04/13 02:48:51;;;;;;;0.60;0.30;;;18.60;49.30;;;;;;10292377;28;20243;-69
2021/04/13 02:54:18;;;;;;;0.73;0.43;;;18.60;49.30;;;;;;10291080;28;20710;-69
2021/04/13 02:59:40;;;;;;;0.43;0.40;;;18.60;49.30;;;;;;10331108;28;20207;-69
2021/04/13 03:05:04;;;;;;;0.50;0.30;;;18.60;49.20;;;;;;10330260;28;20634;-69
2021/04/13 03:10:28;;;;;;;0.60;0.40;;;18.50;49.30;;;;;;10330941;28;20221;-69
2021/04/13 03:15:53;;;;;;;0.40;0.30;;;18.60;49.40;;;;;;10331243;28;20215;-68
2021/04/13 03:21:23;;;;;;;0.50;0.40;;;18.50;49.20;;;;;;10329852;28;20297;-68
2021/04/13 03:26:47;;;;;;;0.87;0.30;;;18.60;49.30;;;;;;10330965;28;20195;-68
2021/04/13 03:32:10;;;;;;;0.30;0.23;;;18.50;49.30;;;;;;10330643;28;20226;-69
2021/04/13 03:37:34;;;;;;;0.90;0.37;;;18.60;49.40;;;;;;10330204;28;20571;-69
2021/04/13 03:43:04;;;;;;;0.87;0.30;;;18.60;49.30;;;;;;10326240;28;20227;-68
2021/04/13 03:48:29;;;;;;;0.43;0.40;;;18.60;49.20;;;;;;10290684;28;20203;-68
2021/04/13 03:53:51;;;;;;;0.50;0.40;;;18.60;49.10;;;;;;10289670;28;20212;-69
2021/04/13 03:59:19;;;;;;;0.23;0.20;;;18.70;49.10;;;;;;10304060;28;20211;-69
2021/04/13 04:04:43;;;;;;;0.50;0.20;;;18.70;49.10;;;;;;10329987;28;20230;-69
2021/04/13 04:10:30;;;;;;;0.43;0.40;;;18.70;49.10;;;;;;10336133;28;20191;-70
2021/04/13 04:16:03;;;;;;;1.03;0.40;;;18.80;48.90;;;;;;10336910;28;20220;-69
2021/04/13 04:21:31;;;;;;;0.40;0.27;;;18.70;49.00;;;;;;10326223;28;20277;-69
2021/04/13 04:26:56;;;;;;;0.40;0.30;;;18.80;49.10;;;;;;10337770;28;20665;-69
2021/04/13 04:32:20;;;;;;;1.20;0.40;;;18.80;49.00;;;;;;10299259;28;20286;-70
2021/04/13 04:38:00;;;;;;;2.20;0.60;;;18.70;49.00;;;;;;10296983;28;20698;-69
2021/04/13 04:43:43;;;;;;;0.87;0.50;;;18.70;49.10;;;;;;10296027;28;20287;-69
2021/04/13 04:49:06;;;;;;;0.37;0.37;;;18.70;49.10;;;;;;10315051;28;20274;-68
2021/04/13 04:54:28;;;;;;;0.50;0.30;;;18.80;49.20;;;;;;10336442;28;20218;-69
2021/04/13 04:59:51;;;;;;;0.70;0.40;;;18.80;49.10;;;;;;10332314;28;20223;-70
2021/04/13 05:05:14;;;;;;;0.40;0.20;;;18.80;49.10;;;;;;10324760;28;20279;-70
2021/04/13 05:10:35;;;;;;;0.77;0.30;;;18.80;49.10;;;;;;10295613;28;20894;-70
2021/04/13 05:15:58;;;;;;;0.50;0.37;;;18.80;49.10;;;;;;10294904;28;20226;-69
2021/04/13 05:21:20;;;;;;;0.60;0.30;;;18.80;49.00;;;;;;10313500;28;20223;-69
2021/04/13 05:26:41;;;;;;;1.20;0.50;;;18.80;49.00;;;;;;10295127;28;20200;-69
2021/04/13 05:32:05;;;;;;;0.87;0.33;;;18.80;49.00;;;;;;10294660;28;20706;-70
2021/04/13 05:37:28;;;;;;;0.57;0.40;;;18.80;49.10;;;;;;10292346;28;20218;-69
2021/04/13 05:42:51;;;;;;;0.97;0.57;;;18.80;49.20;;;;;;10319400;28;20234;-69
2021/04/13 05:48:14;;;;;;;0.87;0.40;;;18.80;49.20;;;;;;10334750;28;20254;-69
2021/04/13 05:53:36;;;;;;;5.43;0.70;;;18.80;49.20;;;;;;10312878;28;20691;-69
2021/04/13 05:58:58;;;;;;;0.87;0.57;;;18.80;49.40;;;;;;10327716;28;20203;-69
2021/04/13 06:04:21;;;;;;;2.57;0.63;;;18.70;48.20;;;;;;10348379;28;20230;-71
2021/04/13 06:09:42;;;;;;;1.73;0.77;;;18.60;47.70;;;;;;10341075;28;20192;-71
2021/04/13 06:15:06;;;;;;;0.80;0.60;;;18.60;46.70;;;;;;10332701;28;20690;-70
2021/04/13 06:20:30;;;;;;;3.07;1.03;;;18.60;46.20;;;;;;10342968;28;20748;-71
2021/04/13 06:25:51;;;;;;;2.87;0.83;;;18.60;46.00;;;;;;10334411;28;20615;-70
2021/04/13 06:31:13;;;;;;;2.53;1.17;;;18.60;45.80;;;;;;10331275;28;20191;-71
2021/04/13 06:36:37;;;;;;;2.60;1.00;;;18.60;45.60;;;;;;10296064;28;20207;-70
2021/04/13 06:42:32;;;;;;;1.97;0.87;;;18.50;45.50;;;;;;10330221;28;20936;-70
2021/04/13 06:48:20;;;;;;;2.40;1.00;;;18.50;45.50;;;;;;10337217;28;20198;-70
2021/04/13 06:54:05;;;;;;;3.43;1.40;;;18.60;45.50;;;;;;10331036;28;20207;-70
2021/04/13 06:59:47;;;;;;;1.63;1.10;;;18.50;45.50;;;;;;10330801;28;20246;-71
2021/04/13 07:05:15;;;;;;;1.93;1.03;;;18.50;45.60;;;;;;10405962;22;20352;-59
2021/04/13 07:10:44;;;;;;;2.90;1.00;;;18.60;45.60;;;;;;10389451;28;20214;-59
2021/04/13 07:16:15;;;;;;;2.40;0.93;;;18.50;45.50;;;;;;10363202;28;20261;-60
2021/04/13 07:21:40;;;;;;;2.50;1.00;;;18.60;45.70;;;;;;10368953;28;20218;-59
2021/04/13 07:27:06;;;;;;;1.93;1.07;;;18.60;45.70;;;;;;10368948;28;20221;-59
2021/04/13 07:32:28;;;;;;;1.30;0.70;;;18.50;45.70;;;;;;10367693;28;20576;-61
2021/04/13 07:37:52;;;;;;;2.80;1.10;;;18.60;45.70;;;;;;10368786;28;20206;-60
2021/04/13 07:43:21;;;;;;;3.67;1.03;;;18.60;45.40;;;;;;10366644;28;20214;-58
2021/04/13 07:49:02;;;;;;;2.33;0.90;;;18.60;45.10;;;;;;10368637;28;20198;-62
2021/04/13 07:54:41;;;;;;;1.63;0.93;;;18.60;45.00;;;;;;10367986;28;20595;-61
2021/04/13 08:00:13;;;;;;;3.20;0.90;;;18.70;45.30;;;;;;10369237;28;20193;-60
2021/04/13 08:05:41;;;;;;;3.30;1.07;;;18.60;45.50;;;;;;10367544;28;20478;-60
2021/04/13 08:11:11;;;;;;;4.07;1.27;;;18.60;45.10;;;;;;10358676;28;20233;-61
2021/04/13 08:16:36;;;;;;;59.77;13.00;;;18.60;45.50;;;;;;10366540;28;20191;-61
2021/04/13 08:22:05;;;;;;;623.23;122.00;;;18.60;46.10;;;;;;10325972;28;20274;-61
2021/04/13 08:27:45;;;;;;;435.03;83.83;;;18.50;43.80;;;;;;10328510;28;20197;-61
2021/04/13 08:33:20;;;;;;;164.17;32.37;;;18.30;42.90;;;;;;10357589;28;20226;-61
2021/04/13 08:38:55;;;;;;;58.57;13.67;;;18.20;41.70;;;;;;10345928;28;20203;-58
2021/04/13 08:44:34;;;;;;;26.03;5.40;;;18.00;41.30;;;;;;10354914;28;20219;-60
2021/04/13 08:49:59;;;;;;;16.70;4.73;;;17.90;41.40;;;;;;10352153;28;20221;-60
2021/04/13 08:55:29;;;;;;;16.17;3.60;;;17.90;41.60;;;;;;10373825;28;20647;-60
2021/04/13 09:00:52;;;;;;;9.00;2.63;;;17.80;41.70;;;;;;10372459;28;20511;-61
2021/04/13 09:06:19;;;;;;;8.50;2.10;;;17.80;41.60;;;;;;10374636;28;20206;-60
2021/04/13 09:11:49;;;;;;;8.13;2.27;;;17.80;41.60;;;;;;10370878;28;20236;-61
2021/04/13 09:17:24;;;;;;;7.57;2.03;;;17.80;42.20;;;;;;10372321;28;20637;-60
2021/04/13 09:22:54;;;;;;;5.93;1.70;;;17.80;41.40;;;;;;10371265;28;20767;-60
2021/04/13 09:28:19;;;;;;;4.43;1.60;;;17.70;40.60;;;;;;10372485;28;20198;-60
2021/04/13 09:33:43;;;;;;;3.43;1.40;;;17.70;40.40;;;;;;10373222;28;20222;-60
2021/04/13 09:39:34;;;;;;;3.90;1.33;;;17.70;41.00;;;;;;10372711;28;20199;-60
2021/04/13 09:45:23;;;;;;;6.13;1.70;;;17.70;40.60;;;;;;10371912;28;20194;-58
2021/04/13 09:50:51;;;;;;;5.27;1.80;;;17.90;41.10;;;;;;10368750;28;20413;-60
2021/04/13 09:56:28;;;;;;;4.53;1.30;;;18.00;41.80;;;;;;10371698;28;20202;-60
2021/04/13 10:01:58;;;;;;;5.40;2.13;;;18.10;42.30;;;;;;10371212;28;20217;-60
2021/04/13 10:07:39;;;;;;;6.17;1.90;;;18.20;42.80;;;;;;10370320;28;20195;-60
2021/04/13 10:13:30;;;;;;;3.80;1.47;;;18.20;43.20;;;;;;10365931;28;20631;-59
2021/04/13 10:19:12;;;;;;;5.13;1.57;;;18.30;43.60;;;;;;10350974;28;20195;-61
2021/04/13 10:25:10;;;;;;;6.43;1.77;;;18.30;43.90;;;;;;10329130;28;20716;-61
2021/04/13 10:31:06;;;;;;;3.87;1.60;;;18.30;44.20;;;;;;10364116;28;20342;-60
2021/04/13 10:36:56;;;;;;;3.10;1.53;;;18.30;44.40;;;;;;10370079;28;20194;-61
2021/04/13 10:42:56;;;;;;;5.83;1.90;;;18.30;44.60;;;;;;10369596;28;20269;-58
2021/04/13 10:48:54;;;;;;;6.07;1.77;;;18.40;44.90;;;;;;10340842;28;20203;-59
2021/04/13 10:54:48;;;;;;;5.07;1.73;;;18.50;44.90;;;;;;10352930;28;20223;-61
2021/04/13 11:00:29;;;;;;;7.87;2.10;;;18.50;45.20;;;;;;10315279;28;20203;-63
2021/04/13 11:06:31;;;;;;;5.27;1.90;;;18.60;45.20;;;;;;10336479;28;20205;-61
2021/04/13 11:12:30;;;;;;;6.23;2.20;;;18.60;45.40;;;;;;10365952;28;20596;-59
2021/04/13 11:18:00;;;;;;;7.37;1.93;;;18.60;45.50;;;;;;10368782;28;20263;-60
2021/04/13 11:23:59;;;;;;;7.43;2.10;;;18.60;44.20;;;;;;10368176;28;20209;-59
2021/04/13 11:29:55;;;;;;;4.70;2.13;;;18.50;44.40;;;;;;10352474;28;20225;-59
2021/04/13 11:35:25;;;;;;;5.40;1.73;;;18.60;44.40;;;;;;10367948;28;20202;-59
2021/04/13 11:40:59;;;;;;;4.43;1.73;;;18.60;45.00;;;;;;10367820;28;20214;-60
2021/04/13 11:46:28;;;;;;;3.90;1.63;;;18.60;45.10;;;;;;10368004;28;20684;-59
2021/04/13 11:51:57;;;;;;;3.87;1.73;;;18.60;45.30;;;;;;10366562;28;20218;-57
2021/04/13 11:57:23;;;;;;;4.50;1.67;;;18.70;45.50;;;;;;10362410;28;20249;-60
2021/04/13 12:02:46;;;;;;;4.33;1.90;;;18.70;45.60;;;;;;10360877;28;20309;-58
2021/04/13 12:08:21;;;;;;;5.33;2.00;;;18.70;45.70;;;;;;10358521;28;20258;-58
2021/04/13 12:13:47;;;;;;;3.80;1.40;;;18.70;45.80;;;;;;10361671;28;20230;-59
2021/04/13 12:19:12;;;;;;;4.60;1.90;;;18.70;46.00;;;;;;10360387;28;20321;-59
2021/04/13 12:24:49;;;;;;;5.37;1.87;;;18.80;46.00;;;;;;10359385;28;20672;-57
2021/04/13 12:30:58;;;;;;;4.30;1.50;;;18.80;46.00;;;;;;10361842;28;20234;-59
2021/04/13 12:36:48;;;;;;;4.33;1.50;;;18.80;46.20;;;;;;10368222;28;20198;-58
2021/04/13 12:42:26;;;;;;;4.30;1.87;;;18.80;46.20;;;;;;10369189;28;20273;-59
2021/04/13 12:47:51;;;;;;;3.23;1.47;;;18.80;46.30;;;;;;10351905;28;20603;-58
2021/04/13 12:53:15;;;;;;;2.73;1.33;;;18.80;46.40;;;;;;10374943;28;20218;-58
2021/04/13 12:58:39;;;;;;;5.97;1.77;;;18.80;46.40;;;;;;10373973;28;20198;-60
2021/04/13 13:04:10;;;;;;;5.30;1.47;;;18.80;47.00;;;;;;10393979;22;20272;-59
2021/04/13 13:09:36;;;;;;;5.13;1.57;;;18.80;46.50;;;;;;10401940;28;20206;-59
2021/04/13 13:15:02;;;;;;;4.30;1.50;;;18.80;46.60;;;;;;10370991;28;20280;-60
2021/04/13 13:20:32;;;;;;;3.17;1.60;;;18.80;46.70;;;;;;10347476;28;20223;-61
2021/04/13 13:25:53;;;;;;;3.63;1.37;;;18.80;46.70;;;;;;10363194;28;20199;-61
2021/04/13 13:31:25;;;;;;;2.60;1.17;;;18.80;46.80;;;;;;10374719;28;20229;-57
2021/04/13 13:36:48;;;;;;;3.10;1.43;;;18.80;47.50;;;;;;10373886;28;20198;-60
2021/04/13 13:42:15;;;;;;;2.00;1.20;;;18.80;47.00;;;;;;10358519;28;20218;-60
2021/04/13 13:47:38;;;;;;;2.60;1.20;;;18.80;47.10;;;;;;10339404;28;20190;-61
2021/04/13 13:53:00;;;;;;;2.67;1.40;;;18.80;47.10;;;;;;10363769;28;20231;-60
2021/04/13 13:58:24;;;;;;;3.23;1.00;;;18.80;47.00;;;;;;10364258;28;20235;-63
2021/04/13 14:03:50;;;;;;;4.77;1.10;;;18.80;46.80;;;;;;10372608;28;20703;-61
2021/04/13 14:09:14;;;;;;;4.30;1.30;;;18.90;46.90;;;;;;10368837;28;20191;-60
2021/04/13 14:14:39;;;;;;;5.60;1.10;;;18.80;46.90;;;;;;10370033;28;20218;-60
2021/04/13 14:20:10;;;;;;;4.57;1.10;;;18.90;47.00;;;;;;10367751;28;20191;-60
2021/04/13 14:25:35;;;;;;;3.27;1.20;;;18.90;47.00;;;;;;10346947;28;20195;-60
2021/04/13 14:30:57;;;;;;;1.87;0.90;;;18.90;47.20;;;;;;10338286;28;20707;-60
2021/04/13 14:36:20;;;;;;;2.03;0.83;;;18.90;47.20;;;;;;10363602;28;20198;-60
2021/04/13 14:41:42;;;;;;;3.20;1.00;;;18.90;47.30;;;;;;10357735;28;20696;-60
2021/04/13 14:47:06;;;;;;;2.73;0.97;;;18.90;47.30;;;;;;10366855;28;20197;-61
2021/04/13 14:52:29;;;;;;;2.47;0.83;;;18.90;47.40;;;;;;10369909;28;20276;-60
2021/04/13 14:57:52;;;;;;;3.50;1.30;;;18.90;47.40;;;;;;10370606;28;20205;-59
2021/04/13 15:03:14;;;;;;;2.83;1.07;;;18.90;47.40;;;;;;10369628;28;20241;-59
2021/04/13 15:08:37;;;;;;;2.57;0.83;;;18.90;47.50;;;;;;10369836;28;20214;-60
2021/04/13 15:13:58;;;;;;;2.00;1.00;;;18.90;47.50;;;;;;10369230;28;20227;-60
2021/04/13 15:19:21;;;;;;;2.53;0.80;;;18.90;47.50;;;;;;10368994;28;20194;-57
2021/04/13 15:24:45;;;;;;;3.27;0.90;;;18.90;47.50;;;;;;10369382;28;20214;-60
2021/04/13 15:30:08;;;;;;;2.07;0.90;;;18.90;47.60;;;;;;10365481;28;20222;-58
2021/04/13 15:35:33;;;;;;;3.07;0.83;;;18.90;47.60;;;;;;10369147;28;20194;-60
2021/04/13 15:40:58;;;;;;;1.50;1.00;;;18.90;47.70;;;;;;10367595;28;20214;-59
2021/04/13 15:46:22;;;;;;;2.33;0.83;;;18.90;47.70;;;;;;10367804;28;20190;-61
2021/04/13 15:51:46;;;;;;;1.80;0.90;;;19.00;47.80;;;;;;10366546;28;20222;-61
2021/04/13 15:57:08;;;;;;;1.90;1.03;;;19.00;47.70;;;;;;10354279;28;20203;-58
2021/04/13 16:02:30;;;;;;;2.70;1.00;;;19.10;47.70;;;;;;10360580;28;20595;-60
2021/04/13 16:07:51;;;;;;;231.70;41.17;;;19.10;47.60;;;;;;10364455;28;20214;-62
2021/04/13 16:13:14;;;;;;;126.90;26.07;;;18.90;46.90;;;;;;10345763;28;20206;-59
2021/04/13 16:18:36;;;;;;;82.27;15.80;;;18.70;42.40;;;;;;10365961;28;20631;-59
2021/04/13 16:23:59;;;;;;;65.30;12.43;;;18.60;41.60;;;;;;10375417;28;20225;-62
2021/04/13 16:29:22;;;;;;;41.30;9.63;;;18.50;41.50;;;;;;10362028;28;20207;-61
2021/04/13 16:34:44;;;;;;;29.03;6.97;;;18.50;41.80;;;;;;10358310;28;20229;-59
2021/04/13 16:40:11;;;;;;;16.40;4.10;;;18.40;41.50;;;;;;10375051;28;20202;-61
2021/04/13 16:45:38;;;;;;;15.13;3.23;;;18.30;40.30;;;;;;10368410;28;20202;-61
2021/04/13 16:51:05;;;;;;;14.63;3.73;;;18.30;40.80;;;;;;10369915;28;20458;-60
2021/04/13 16:56:28;;;;;;;9.90;2.50;;;19.60;38.40;;;;;;10373476;28;20202;-61
2021/04/13 17:01:57;;;;;;;10.83;2.40;;;18.70;40.10;;;;;;10375317;28;20230;-61
2021/04/13 17:07:33;;;;;;;7.10;1.83;;;18.50;40.70;;;;;;10374576;28;20289;-60
2021/04/13 17:13:00;;;;;;;4.80;1.60;;;18.40;40.90;;;;;;10372947;28;20345;-60
2021/04/13 17:18:23;;;;;;;8.53;1.70;;;18.30;41.10;;;;;;10375114;28;20241;-60
2021/04/13 17:23:47;;;;;;;5.27;1.63;;;18.40;41.90;;;;;;10374366;28;20229;-59
2021/04/13 17:29:12;;;;;;;4.93;1.60;;;18.50;42.40;;;;;;10374734;28;20198;-60
2021/04/13 17:34:35;;;;;;;5.13;1.30;;;18.60;42.80;;;;;;10374233;28;20222;-60
2021/04/13 17:40:00;;;;;;;4.13;1.37;;;18.60;43.20;;;;;;10372370;28;20206;-61
2021/04/13 17:45:24;;;;;;;5.17;1.60;;;18.60;43.40;;;;;;10372132;28;20229;-58
2021/04/13 17:50:47;;;;;;;4.87;1.70;;;18.70;43.80;;;;;;10372232;28;20225;-57
2021/04/13 17:56:17;;;;;;;4.43;1.43;;;18.70;44.00;;;;;;10373081;28;20205;-58
2021/04/13 18:01:41;;;;;;;3.33;1.13;;;18.70;44.20;;;;;;10372665;28;20261;-58
2021/04/13 18:07:11;;;;;;;2.90;1.30;;;18.70;44.40;;;;;;10373605;28;20664;-59
2021/04/13 18:12:39;;;;;;;4.40;1.60;;;18.70;44.50;;;;;;10355761;28;20222;-60
2021/04/13 18:18:09;;;;;;;4.87;1.53;;;18.80;45.30;;;;;;10331969;28;20301;-60
2021/04/13 18:23:37;;;;;;;4.10;1.70;;;18.70;44.80;;;;;;10326533;28;20759;-61
2021/04/13 18:29:03;;;;;;;2.67;1.30;;;20.10;41.80;;;;;;10331161;28;20209;-59
2021/04/13 18:34:31;;;;;;;3.70;1.40;;;19.10;44.00;;;;;;10365035;28;20273;-60
2021/04/13 18:39:58;;;;;;;2.73;1.30;;;18.90;44.70;;;;;;10371684;28;20190;-59
2021/04/13 18:45:25;;;;;;;3.90;1.60;;;18.90;45.10;;;;;;10387042;28;20273;-59
2021/04/13 18:50:53;;;;;;;3.70;1.60;;;18.80;45.90;;;;;;10326897;28;20917;-59
2021/04/13 18:56:22;;;;;;;2.63;1.30;;;20.10;42.40;;;;;;10347610;28;20247;-61
2021/04/13 19:01:47;;;;;;;3.80;1.40;;;19.20;44.50;;;;;;10367985;28;20217;-59
2021/04/13 19:07:14;;;;;;;2.57;1.13;;;19.00;45.40;;;;;;10421729;23;20226;-70
2021/04/13 19:12:40;;;;;;;5.53;1.80;;;18.90;45.80;;;;;;10406771;28;20214;-69
2021/04/13 19:18:05;;;;;;;3.93;1.80;;;18.90;46.10;;;;;;10364608;28;20214;-69
2021/04/13 19:23:32;;;;;;;5.43;1.27;;;18.90;46.20;;;;;;10410314;28;20193;-68
2021/04/13 19:29:09;;;;;;;5.50;1.80;;;18.90;46.30;;;;;;10410333;28;20589;-69
2021/04/13 19:34:35;;;;;;;3.70;1.50;;;18.90;46.40;;;;;;10394072;28;20230;-68
2021/04/13 19:39:57;;;;;;;2.77;1.33;;;18.80;46.40;;;;;;10370381;28;20187;-68
2021/04/13 19:45:25;;;;;;;2.07;1.20;;;18.90;46.50;;;;;;10382665;28;20219;-69
2021/04/13 19:50:55;;;;;;;2.67;1.30;;;18.90;46.80;;;;;;10407357;28;20210;-69
2021/04/13 19:56:17;;;;;;;2.93;1.40;;;18.90;46.60;;;;;;10388661;28;20211;-69
2021/04/13 20:01:40;;;;;;;3.10;1.20;;;18.90;46.50;;;;;;10369877;28;20585;-69
2021/04/13 20:07:04;;;;;;;2.73;1.13;;;18.90;46.50;;;;;;10368638;28;20288;-69
2021/04/13 20:12:27;;;;;;;2.40;1.10;;;18.90;46.60;;;;;;10363648;28;20226;-69
2021/04/13 20:17:50;;;;;;;3.20;1.30;;;18.90;46.60;;;;;;10364939;28;20244;-69
2021/04/13 20:23:15;;;;;;;3.27;1.20;;;18.90;46.60;;;;;;10358552;28;20221;-68
2021/04/13 20:28:44;;;;;;;2.63;1.07;;;18.90;46.70;;;;;;10395189;28;20196;-68
2021/04/13 20:34:23;;;;;;;2.37;1.10;;;18.90;46.70;;;;;;10370018;28;20221;-69
2021/04/13 20:39:45;;;;;;;2.90;1.37;;;18.90;46.70;;;;;;10369097;28;20190;-69
2021/04/13 20:45:08;;;;;;;3.43;1.30;;;18.90;46.80;;;;;;10399719;28;20237;-69
2021/04/13 20:50:35;;;;;;;2.50;1.10;;;18.90;46.90;;;;;;10415455;28;20694;-69
2021/04/13 20:56:04;;;;;;;2.23;0.90;;;18.90;47.00;;;;;;10401509;28;20229;-68
2021/04/13 21:01:33;;;;;;;3.43;1.23;;;18.80;47.00;;;;;;10369128;28;20232;-69
2021/04/13 21:07:04;;;;;;;3.63;1.10;;;18.80;47.10;;;;;;10375252;28;20226;-69
2021/04/13 21:12:30;;;;;;;2.53;1.07;;;18.70;47.10;;;;;;10390056;28;20747;-69
2021/04/13 21:17:55;;;;;;;3.80;1.00;;;18.70;47.20;;;;;;10385381;28;20225;-69
2021/04/13 21:23:29;;;;;;;2.07;1.03;;;18.70;47.20;;;;;;10375338;28;20692;-69
2021/04/13 21:28:55;;;;;;;2.83;1.17;;;18.70;47.20;;;;;;10396077;28;20558;-69
2021/04/13 21:34:26;;;;;;;1.83;1.23;;;18.70;47.30;;;;;;10414824;28;20589;-69
2021/04/13 21:39:53;;;;;;;2.50;0.90;;;18.70;47.30;;;;;;10401935;28;20695;-68
2021/04/13 21:45:19;;;;;;;2.57;1.00;;;18.70;47.90;;;;;;10404719;28;20689;-68
2021/04/13 21:50:45;;;;;;;1.53;1.00;;;18.70;47.40;;;;;;10390272;28;20217;-69
2021/04/13 21:56:17;;;;;;;3.10;1.27;;;18.70;47.40;;;;;;10398655;28;20214;-68
2021/04/13 22:01:42;;;;;;;3.03;1.00;;;18.70;47.40;;;;;;10375529;28;20183;-69
2021/04/13 22:07:10;;;;;;;2.13;0.90;;;18.70;47.50;;;;;;10364689;28;20242;-69
2021/04/13 22:12:36;;;;;;;2.07;0.87;;;18.70;47.50;;;;;;10372780;28;20300;-69
2021/04/13 22:18:03;;;;;;;1.83;1.00;;;18.60;47.50;;;;;;10373001;28;20562;-69
2021/04/13 22:23:31;;;;;;;1.73;0.93;;;18.70;47.60;;;;;;10370719;28;20241;-69
2021/04/13 22:28:59;;;;;;;2.83;0.80;;;18.70;47.60;;;;;;10374083;28;20194;-69
2021/04/13 22:34:25;;;;;;;2.50;0.80;;;18.70;47.70;;;;;;10373527;28;20226;-69
2021/04/13 22:39:50;;;;;;;2.97;1.00;;;18.60;47.60;;;;;;10373291;28;20195;-69
2021/04/13 22:45:15;;;;;;;2.33;0.90;;;18.70;47.70;;;;;;10371143;28;20219;-69
2021/04/13 22:50:37;;;;;;;1.60;0.80;;;18.70;47.70;;;;;;10371471;28;20214;-69
2021/04/13 22:56:03;;;;;;;2.20;0.90;;;18.60;47.70;;;;;;10372993;28;20265;-68
2021/04/13 23:01:26;;;;;;;1.80;0.70;;;18.60;47.70;;;;;;10370897;28;20195;-68
2021/04/13 23:06:48;;;;;;;1.33;0.70;;;18.70;47.80;;;;;;10370302;28;20222;-68
2021/04/13 23:12:10;;;;;;;1.33;0.70;;;18.60;47.70;;;;;;10369815;28;20222;-69
2021/04/13 23:17:33;;;;;;;1.60;0.80;;;18.60;47.80;;;;;;10370900;28;20284;-68
2021/04/13 23:22:56;;;;;;;2.53;0.80;;;18.60;47.80;;;;;;10370228;28;20674;-69
2021/04/13 23:28:18;;;;;;;2.13;0.73;;;18.60;47.80;;;;;;10369768;28;20214;-69
2021/04/13 23:33:41;;;;;;;2.43;0.80;;;18.60;47.80;;;;;;10370354;28;20566;-69
2021/04/13 23:39:03;;;;;;;1.50;0.90;;;18.60;47.80;;;;;;10370241;28;20620;-69
2021/04/13 23:44:25;;;;;;;2.83;0.70;;;18.60;47.90;;;;;;10369158;28;20589;-69
2021/04/13 23:49:47;;;;;;;1.83;0.93;;;18.60;47.90;;;;;;10369335;28;20202;-68
2021/04/13 23:55:10;;;;;;;2.37;1.07;;;18.60;47.90;;;;;;10365631;28;20222;-68
